Time;durP1;ratioP1;P1;durP2;ratioP2;P2;SDS_P1;SDS_P2;PMS_P1;PMS_P2;Temp;Humidity;BMP_temperature;BMP_pressure;BME280_temperature;BME280_humidity;BME280_pressure;Samples;Min_cycle;Max_cycle;Signal;HPM_P1;HPM_P2
2021/04/19 00:00:50;;;;;;;15.82;11.90;;;10.50;99.90;;;;;;5011862;28;20224;-75
2021/04/19 00:03:16;;;;;;;20.55;12.15;;;10.50;99.90;;;;;;5014479;28;20225;-75
2021/04/19 00:05:43;;;;;;;13.50;11.27;;;10.50;99.90;;;;;;5030308;28;20234;-75
2021/04/19 00:08:10;;;;;;;15.13;11.52;;;10.60;99.90;;;;;;5030150;28;20214;-75
2021/04/19 00:10:36;;;;;;;13.83;10.63;;;10.60;99.90;;;;;;5010068;28;20538;-75
2021/04/19 00:13:03;;;;;;;14.93;10.93;;;10.50;99.90;;;;;;5011392;28;20488;-75
2021/04/19 00:15:31;;;;;;;18.27;11.88;;;10.50;99.90;;;;;;5011860;28;20446;-75
2021/04/19 00:17:58;;;;;;;13.63;11.18;;;10.50;99.90;;;;;;5026428;28;20253;-75
2021/04/19 00:20:25;;;;;;;14.13;11.15;;;10.50;99.90;;;;;;5011288;28;20593;-75
2021/04/19 00:22:52;;;;;;;11.77;10.55;;;10.50;99.90;;;;;;5023518;28;20308;-75
2021/04/19 00:25:18;;;;;;;12.57;10.90;;;10.40;99.90;;;;;;5019252;28;20221;-75
2021/04/19 00:27:45;;;;;;;15.40;11.43;;;10.40;99.90;;;;;;5011048;28;20211;-75
2021/04/19 00:30:12;;;;;;;19.23;11.75;;;10.40;99.90;;;;;;5011427;28;20182;-75
2021/04/19 00:32:39;;;;;;;17.80;12.10;;;10.50;99.90;;;;;;4995395;28;20298;-75
2021/04/19 00:35:06;;;;;;;15.57;12.00;;;10.50;99.90;;;;;;5019669;28;20213;-75
2021/04/19 00:37:33;;;;;;;15.80;12.23;;;10.50;99.90;;;;;;5010029;28;20251;-75
2021/04/19 00:40:01;;;;;;;22.55;11.75;;;10.40;99.90;;;;;;5011328;28;20191;-75
2021/04/19 00:42:27;;;;;;;18.77;13.20;;;10.40;99.90;;;;;;5026281;28;20226;-75
2021/04/19 00:44:54;;;;;;;18.00;12.13;;;10.40;99.90;;;;;;5011531;28;20460;-75
2021/04/19 00:47:20;;;;;;;14.88;10.90;;;10.40;99.90;;;;;;5011004;28;20627;-75
2021/04/19 00:49:47;;;;;;;16.73;11.73;;;10.40;99.90;;;;;;5011239;28;20190;-75
2021/04/19 00:52:13;;;;;;;16.33;11.55;;;10.40;99.90;;;;;;5009531;28;20726;-75
2021/04/19 00:54:40;;;;;;;17.75;11.57;;;10.40;99.90;;;;;;5013434;28;20190;-75
2021/04/19 00:57:08;;;;;;;21.70;11.88;;;10.40;99.90;;;;;;5012866;28;20219;-75
2021/04/19 00:59:34;;;;;;;15.55;11.60;;;10.30;99.90;;;;;;5028595;28;20582;-75
2021/04/19 01:02:02;;;;;;;14.40;11.73;;;10.30;99.90;;;;;;5033961;28;20671;-75
2021/04/19 01:04:31;;;;;;;16.67;11.02;;;10.30;99.90;;;;;;5034179;28;20197;-75
2021/04/19 01:07:00;;;;;;;18.40;10.18;;;10.30;99.90;;;;;;5033694;28;20254;-75
2021/04/19 01:09:28;;;;;;;16.70;11.57;;;10.30;99.90;;;;;;5032224;28;20200;-75
2021/04/19 01:11:55;;;;;;;16.00;12.70;;;10.30;99.90;;;;;;5016278;28;20713;-75
2021/04/19 01:14:22;;;;;;;13.38;11.00;;;10.30;99.90;;;;;;5033211;28;20208;-75
2021/04/19 01:16:48;;;;;;;13.48;11.68;;;10.30;99.90;;;;;;5034062;28;20232;-75
2021/04/19 01:19:15;;;;;;;19.90;10.95;;;10.30;99.90;;;;;;5029886;28;20186;-75
2021/04/19 01:21:43;;;;;;;19.25;11.77;;;10.20;99.90;;;;;;5014304;28;20225;-75
2021/04/19 01:24:09;;;;;;;17.63;13.10;;;10.20;99.90;;;;;;5014340;28;20182;-75
2021/04/19 01:26:37;;;;;;;16.42;12.85;;;10.20;99.90;;;;;;5013955;28;20233;-75
2021/04/19 01:29:05;;;;;;;18.98;12.43;;;10.20;99.90;;;;;;5012901;28;20201;-75
2021/04/19 01:31:32;;;;;;;21.27;12.40;;;10.20;99.90;;;;;;5014018;28;20245;-75
2021/04/19 01:34:06;;;;;;;20.40;13.30;;;10.10;99.90;;;;;;5013128;28;20190;-75
2021/04/19 01:36:33;;;;;;;17.75;12.55;;;10.00;99.90;;;;;;5012191;28;20229;-75
2021/04/19 01:38:59;;;;;;;22.35;12.57;;;10.10;99.90;;;;;;5013757;28;20552;-75
2021/04/19 01:41:29;;;;;;;16.48;12.10;;;10.20;99.90;;;;;;5028834;28;20664;-75
2021/04/19 01:43:56;;;;;;;18.55;13.25;;;10.20;99.90;;;;;;5014031;28;20182;-75
2021/04/19 01:46:25;;;;;;;16.85;12.70;;;10.10;99.90;;;;;;5011863;28;20237;-75
2021/04/19 01:48:57;;;;;;;20.05;12.52;;;10.10;99.90;;;;;;5012456;28;20197;-75
2021/04/19 01:51:28;;;;;;;16.10;13.40;;;10.10;99.90;;;;;;5028501;28;20226;-75
2021/04/19 01:53:56;;;;;;;17.42;13.60;;;10.10;99.90;;;;;;5045135;28;20222;-75
2021/04/19 01:56:23;;;;;;;19.13;13.20;;;10.00;99.90;;;;;;5025819;28;20737;-75
2021/04/19 01:58:51;;;;;;;20.23;14.10;;;10.00;99.90;;;;;;5033198;28;20240;-75
2021/04/19 02:01:17;;;;;;;16.15;13.45;;;10.00;99.90;;;;;;5032803;28;20279;-76
2021/04/19 02:03:59;;;;;;;17.02;13.35;;;9.90;99.90;;;;;;5031738;28;20236;-76
2021/04/19 02:06:47;;;;;;;22.77;14.75;;;9.90;99.90;;;;;;5030889;28;20343;-75
2021/04/19 02:09:36;;;;;;;20.27;13.25;;;9.90;99.90;;;;;;5030819;28;20189;-75
2021/04/19 02:12:22;;;;;;;21.98;15.68;;;9.90;99.90;;;;;;5011513;28;20331;-75
2021/04/19 02:15:03;;;;;;;19.38;13.75;;;9.90;99.90;;;;;;5012173;28;20252;-75
2021/04/19 02:17:34;;;;;;;21.05;14.73;;;9.90;99.90;;;;;;5012600;28;20261;-75
2021/04/19 02:20:04;;;;;;;24.25;17.98;;;9.80;99.90;;;;;;5025163;28;20248;-75
2021/04/19 02:22:45;;;;;;;26.90;16.48;;;9.90;99.90;;;;;;5031300;28;20741;-75
2021/04/19 02:25:20;;;;;;;22.65;16.83;;;9.80;99.90;;;;;;5027410;28;20217;-75
2021/04/19 02:27:57;;;;;;;25.30;16.67;;;9.70;99.90;;;;;;5027501;28;20288;-75
2021/04/19 02:30:30;;;;;;;24.50;17.30;;;9.80;99.90;;;;;;5013127;28;20271;-75
2021/04/19 02:32:57;;;;;;;27.25;16.75;;;9.80;99.90;;;;;;5016101;28;20225;-75
2021/04/19 02:35:26;;;;;;;23.27;16.40;;;9.80;99.90;;;;;;5016484;28;20221;-75
2021/04/19 02:38:12;;;;;;;23.95;18.25;;;9.70;99.90;;;;;;5027591;28;20225;-75
2021/04/19 02:40:39;;;;;;;26.00;17.83;;;9.70;99.90;;;;;;5028218;28;20194;-75
2021/04/19 02:43:07;;;;;;;27.98;20.10;;;9.70;99.90;;;;;;5013543;28;20226;-75
2021/04/19 02:45:40;;;;;;;30.63;20.15;;;9.70;99.90;;;;;;5013270;28;20209;-75
2021/04/19 02:48:21;;;;;;;28.65;21.10;;;9.60;99.90;;;;;;5012646;28;20229;-75
2021/04/19 02:50:54;;;;;;;30.95;21.65;;;9.70;99.90;;;;;;5027510;28;20269;-75
2021/04/19 02:53:21;;;;;;;26.77;22.30;;;9.60;99.90;;;;;;5012747;28;20213;-75
2021/04/19 02:55:49;;;;;;;29.40;20.83;;;9.60;99.90;;;;;;5011815;28;20296;-75
2021/04/19 02:58:27;;;;;;;29.38;22.10;;;9.50;99.90;;;;;;5013206;28;20182;-75
2021/04/19 03:00:54;;;;;;;29.95;22.40;;;9.50;99.90;;;;;;5012107;28;20528;-75
2021/04/19 03:03:26;;;;;;;31.25;22.50;;;9.50;99.90;;;;;;5016769;28;20244;-75
2021/04/19 03:06:01;;;;;;;33.45;22.45;;;9.40;99.90;;;;;;5030779;28;20196;-75
2021/04/19 03:08:32;;;;;;;26.80;19.98;;;9.40;99.90;;;;;;5014834;28;20189;-75
2021/04/19 03:11:19;;;;;;;32.45;22.10;;;9.30;99.90;;;;;;5014900;28;20201;-75
2021/04/19 03:13:49;;;;;;;30.80;22.15;;;9.30;99.90;;;;;;5011245;28;20197;-75
2021/04/19 03:16:28;;;;;;;28.23;20.17;;;9.30;99.90;;;;;;5011401;28;20316;-75
2021/04/19 03:19:05;;;;;;;29.45;22.92;;;9.30;99.90;;;;;;5027059;28;20271;-75
2021/04/19 03:21:39;;;;;;;35.33;22.17;;;9.40;99.90;;;;;;5027074;28;20730;-75
2021/04/19 03:24:13;;;;;;;25.60;21.52;;;9.40;99.90;;;;;;4995323;28;20220;-75
2021/04/19 03:27:04;;;;;;;33.53;21.90;;;9.30;99.90;;;;;;5011331;28;20221;-75
2021/04/19 03:29:36;;;;;;;38.88;24.85;;;9.30;99.90;;;;;;5010812;28;20194;-75
2021/04/19 03:32:16;;;;;;;29.90;22.42;;;9.20;99.90;;;;;;5011799;28;20236;-75
2021/04/19 03:34:48;;;;;;;30.08;22.10;;;9.20;99.90;;;;;;5028010;28;20199;-75
2021/04/19 03:37:24;;;;;;;27.33;21.60;;;9.20;99.90;;;;;;5030060;28;20228;-75
2021/04/19 03:40:01;;;;;;;31.40;22.63;;;9.20;99.90;;;;;;5025194;28;20213;-75
2021/04/19 03:42:34;;;;;;;27.98;20.80;;;9.30;99.90;;;;;;4994539;28;20225;-75
2021/04/19 03:45:08;;;;;;;30.30;21.45;;;9.20;99.90;;;;;;5010667;28;20753;-75
2021/04/19 03:47:56;;;;;;;24.98;20.25;;;9.20;99.90;;;;;;5020196;28;20312;-75
2021/04/19 03:50:39;;;;;;;27.33;20.58;;;9.20;99.90;;;;;;5010178;28;20213;-75
2021/04/19 03:53:06;;;;;;;28.27;20.92;;;9.10;99.90;;;;;;5010094;28;20226;-75
2021/04/19 03:55:34;;;;;;;37.42;22.25;;;9.20;99.90;;;;;;5011454;28;20276;-75
2021/04/19 03:58:04;;;;;;;28.70;22.08;;;9.20;99.90;;;;;;5012718;28;20264;-75
2021/04/19 04:00:41;;;;;;;28.00;21.77;;;9.20;99.90;;;;;;5015526;28;20205;-75
2021/04/19 04:03:24;;;;;;;33.22;22.10;;;9.10;99.90;;;;;;5026095;28;20224;-75
2021/04/19 04:06:16;;;;;;;36.75;22.90;;;9.10;99.90;;;;;;5011640;28;20247;-75
2021/04/19 04:08:45;;;;;;;27.60;22.42;;;9.10;99.90;;;;;;5011685;28;20186;-75
2021/04/19 04:11:16;;;;;;;33.95;24.02;;;9.10;99.90;;;;;;5011136;28;20226;-75
2021/04/19 04:13:47;;;;;;;34.83;24.08;;;9.00;99.90;;;;;;5010711;28;20569;-75
2021/04/19 04:16:13;;;;;;;37.15;24.45;;;9.00;99.90;;;;;;5010140;28;20268;-75
2021/04/19 04:19:03;;;;;;;29.80;23.08;;;9.00;99.90;;;;;;5011551;28;20537;-75
2021/04/19 04:21:35;;;;;;;29.90;25.20;;;9.00;99.90;;;;;;5026212;28;20274;-75
2021/04/19 04:24:10;;;;;;;28.90;22.48;;;9.00;99.90;;;;;;4995235;28;20552;-75
2021/04/19 04:26:37;;;;;;;31.83;24.45;;;8.90;99.90;;;;;;5011051;28;20283;-75
2021/04/19 04:29:05;;;;;;;36.50;24.55;;;9.00;99.90;;;;;;5028380;28;20280;-75
2021/04/19 04:31:39;;;;;;;37.33;26.25;;;9.00;99.90;;;;;;5013496;28;20275;-75
2021/04/19 04:34:10;;;;;;;32.85;24.60;;;8.90;99.90;;;;;;5014152;28;20699;-75
2021/04/19 04:36:37;;;;;;;30.60;25.33;;;8.90;99.90;;;;;;5026297;28;20299;-75
2021/04/19 04:39:10;;;;;;;38.08;25.92;;;8.90;99.90;;;;;;5031218;28;20190;-75
2021/04/19 04:41:44;;;;;;;35.10;24.30;;;8.90;99.90;;;;;;5013356;28;20379;-75
2021/04/19 04:44:16;;;;;;;32.92;24.02;;;8.80;99.90;;;;;;5030391;28;20190;-75
2021/04/19 04:47:22;;;;;;;31.45;24.33;;;8.80;99.90;;;;;;5014184;28;20237;-75
2021/04/19 04:50:11;;;;;;;29.35;24.73;;;8.70;99.90;;;;;;5030216;28;20672;-75
2021/04/19 04:52:53;;;;;;;34.00;24.90;;;8.70;99.90;;;;;;5014206;28;20295;-75
2021/04/19 04:55:21;;;;;;;30.58;25.95;;;8.70;99.90;;;;;;5029910;28;20316;-75
2021/04/19 04:57:50;;;;;;;33.45;26.50;;;8.70;99.90;;;;;;5015045;28;20300;-75
2021/04/19 05:00:19;;;;;;;35.58;26.35;;;8.70;99.90;;;;;;5034578;28;20182;-75
2021/04/19 05:02:48;;;;;;;44.15;26.63;;;8.60;99.90;;;;;;5024235;28;20221;-75
2021/04/19 05:05:16;;;;;;;35.60;27.02;;;8.60;99.90;;;;;;5014481;28;20217;-75
2021/04/19 05:07:44;;;;;;;36.28;26.42;;;8.60;99.90;;;;;;5012803;28;20704;-75
2021/04/19 05:10:13;;;;;;;39.35;25.83;;;8.70;99.90;;;;;;5014383;28;20190;-75
2021/04/19 05:12:41;;;;;;;33.33;26.55;;;8.70;99.90;;;;;;5029174;28;20613;-75
2021/04/19 05:15:12;;;;;;;50.40;28.33;;;8.70;99.90;;;;;;5014493;28;20627;-75
2021/04/19 05:17:43;;;;;;;38.03;26.80;;;8.70;99.90;;;;;;5013872;28;20209;-75
2021/04/19 05:20:13;;;;;;;35.78;26.10;;;8.70;99.90;;;;;;5014473;28;20545;-75
2021/04/19 05:22:41;;;;;;;39.72;27.00;;;8.70;99.90;;;;;;5013931;28;20249;-75
2021/04/19 05:25:10;;;;;;;40.28;27.80;;;8.70;99.90;;;;;;5014230;28;20215;-75
2021/04/19 05:27:36;;;;;;;39.25;26.55;;;8.70;99.90;;;;;;5013647;28;20283;-75
2021/04/19 05:30:04;;;;;;;33.47;27.75;;;8.70;99.90;;;;;;5013282;28;20557;-75
2021/04/19 05:32:31;;;;;;;37.40;26.67;;;8.70;99.90;;;;;;5013803;28;20723;-75
2021/04/19 05:34:59;;;;;;;30.30;26.60;;;8.70;99.90;;;;;;5014100;28;20583;-75
2021/04/19 05:37:29;;;;;;;36.45;25.10;;;8.70;99.90;;;;;;5017727;28;20749;-75
2021/04/19 05:39:57;;;;;;;32.40;25.67;;;8.70;99.90;;;;;;5030469;28;20190;-75
2021/04/19 05:42:24;;;;;;;34.13;24.23;;;8.70;99.90;;;;;;5031664;28;20244;-75
2021/04/19 05:44:50;;;;;;;28.83;23.75;;;8.60;99.90;;;;;;5033643;28;20185;-75
2021/04/19 05:47:18;;;;;;;32.92;25.17;;;8.60;99.90;;;;;;5025881;28;20228;-75
2021/04/19 05:49:45;;;;;;;33.05;25.00;;;8.70;99.90;;;;;;5020938;28;20209;-75
2021/04/19 05:52:13;;;;;;;36.50;26.02;;;8.70;99.90;;;;;;5011988;28;20344;-75
2021/04/19 05:54:41;;;;;;;36.00;27.20;;;8.70;99.90;;;;;;5028883;28;20656;-75
2021/04/19 05:57:27;;;;;;;36.03;26.13;;;8.70;99.90;;;;;;5025782;28;20238;-75
2021/04/19 06:00:16;;;;;;;32.47;25.90;;;8.70;99.90;;;;;;5036242;28;20242;-75
2021/04/19 06:03:01;;;;;;;39.78;27.92;;;8.60;99.90;;;;;;5032570;28;20564;-75
2021/04/19 06:05:32;;;;;;;36.20;27.13;;;8.70;99.90;;;;;;5016733;28;20272;-75
2021/04/19 06:08:12;;;;;;;34.67;26.02;;;8.70;99.90;;;;;;5026470;28;20271;-75
2021/04/19 06:10:52;;;;;;;37.42;27.23;;;8.70;99.90;;;;;;5019079;28;20204;-75
2021/04/19 06:13:43;;;;;;;30.27;24.77;;;8.70;99.90;;;;;;5012266;28;20214;-75
2021/04/19 06:16:11;;;;;;;33.63;25.60;;;8.70;99.90;;;;;;5012498;28;20668;-75
2021/04/19 06:18:41;;;;;;;34.00;27.65;;;8.70;99.90;;;;;;4995901;28;20602;-75
2021/04/19 06:21:10;;;;;;;35.20;26.90;;;8.70;99.90;;;;;;5011566;28;20222;-75
2021/04/19 06:23:39;;;;;;;37.78;28.60;;;8.70;99.90;;;;;;5012110;28;20264;-75
2021/04/19 06:26:07;;;;;;;36.58;28.23;;;8.70;99.90;;;;;;5012273;28;20627;-75
2021/04/19 06:28:34;;;;;;;39.33;28.13;;;8.60;99.90;;;;;;5012087;28;20178;-75
2021/04/19 06:31:19;;;;;;;40.60;27.98;;;8.70;99.90;;;;;;5011047;28;20217;-75
2021/04/19 06:34:03;;;;;;;40.63;28.30;;;8.70;99.90;;;;;;5012861;28;20182;-75
2021/04/19 06:36:36;;;;;;;45.05;27.40;;;8.80;99.90;;;;;;5030325;28;20216;-76
2021/04/19 06:39:05;;;;;;;33.50;28.25;;;8.70;99.90;;;;;;5030974;28;20604;-76
2021/04/19 06:41:31;;;;;;;39.25;28.08;;;8.80;99.90;;;;;;5011129;28;20276;-76
2021/04/19 06:43:59;;;;;;;36.95;26.77;;;8.80;99.90;;;;;;5013085;28;20583;-75
2021/04/19 06:46:30;;;;;;;41.05;28.83;;;8.80;99.90;;;;;;5027208;28;20257;-75
2021/04/19 06:48:57;;;;;;;41.05;28.80;;;8.80;99.90;;;;;;5012808;28;20757;-75
2021/04/19 06:51:25;;;;;;;39.22;30.35;;;8.80;99.90;;;;;;5012013;28;20280;-75
2021/04/19 06:53:55;;;;;;;39.88;28.95;;;8.80;99.90;;;;;;5011910;28;20193;-75
2021/04/19 06:56:25;;;;;;;43.30;31.40;;;8.70;99.90;;;;;;5024291;28;20706;-76
2021/04/19 06:58:53;;;;;;;43.03;31.10;;;8.80;99.90;;;;;;5032935;28;20212;-76
2021/04/19 07:01:21;;;;;;;42.97;32.53;;;8.80;99.90;;;;;;5014297;28;20217;-76
2021/04/19 07:03:50;;;;;;;41.10;32.78;;;8.80;99.90;;;;;;5018080;28;20683;-76
2021/04/19 07:06:17;;;;;;;49.15;35.08;;;8.70;99.90;;;;;;5011885;28;20214;-77
2021/04/19 07:09:03;;;;;;;53.90;34.17;;;8.80;99.90;;;;;;5012775;28;20261;-77
2021/04/19 07:11:35;;;;;;;46.92;34.40;;;8.70;99.90;;;;;;5031356;28;20231;-77
2021/04/19 07:14:04;;;;;;;56.28;37.67;;;8.80;99.90;;;;;;5047851;28;20580;-77
2021/04/19 07:16:32;;;;;;;44.78;35.53;;;8.80;99.90;;;;;;5031483;28;20251;-78
2021/04/19 07:19:00;;;;;;;51.63;35.95;;;8.80;99.90;;;;;;5014393;28;20671;-78
2021/04/19 07:21:27;;;;;;;57.17;36.88;;;8.70;99.90;;;;;;5012029;28;20229;-77
2021/04/19 07:23:54;;;;;;;50.83;36.10;;;8.80;99.90;;;;;;5031997;28;20183;-78
2021/04/19 07:26:21;;;;;;;52.90;39.53;;;8.70;99.90;;;;;;5011801;28;20694;-78
2021/04/19 07:28:48;;;;;;;52.85;39.10;;;8.70;99.90;;;;;;5011032;28;20236;-78
2021/04/19 07:31:15;;;;;;;54.97;39.17;;;8.70;99.90;;;;;;5011712;28;20218;-78
2021/04/19 07:33:42;;;;;;;53.53;38.92;;;8.70;99.90;;;;;;5011007;28;20277;-78
2021/04/19 07:36:29;;;;;;;48.05;36.85;;;8.70;99.90;;;;;;5010074;28;20654;-78
2021/04/19 07:38:59;;;;;;;44.00;36.90;;;8.60;99.90;;;;;;5012200;28;20178;-78
2021/04/19 07:41:52;;;;;;;47.78;36.67;;;8.60;99.90;;;;;;5011416;28;20225;-78
2021/04/19 07:44:35;;;;;;;50.50;36.15;;;8.60;99.90;;;;;;5011866;28;20583;-78
2021/04/19 07:47:26;;;;;;;57.30;38.22;;;8.50;99.90;;;;;;5009961;28;20229;-78
2021/04/19 07:50:08;;;;;;;56.70;39.85;;;8.60;99.90;;;;;;5011877;28;20595;-78
2021/04/19 07:52:48;;;;;;;50.20;36.40;;;8.50;99.90;;;;;;4993685;28;20280;-78
2021/04/19 07:55:17;;;;;;;54.78;37.90;;;8.50;99.90;;;;;;5011649;28;20239;-78
2021/04/19 07:58:06;;;;;;;58.17;39.42;;;8.50;99.90;;;;;;5031239;28;20644;-78
2021/04/19 08:00:39;;;;;;;59.83;38.85;;;8.50;99.90;;;;;;5030671;28;20181;-77
2021/04/19 08:03:08;;;;;;;54.95;38.47;;;8.50;99.90;;;;;;5011346;28;20225;-77
2021/04/19 08:05:39;;;;;;;49.78;38.83;;;8.40;99.90;;;;;;5030362;28;20202;-77
2021/04/19 08:08:07;;;;;;;55.00;40.97;;;8.40;99.90;;;;;;5044570;28;20224;-78
2021/04/19 08:10:37;;;;;;;55.90;39.08;;;8.40;99.90;;;;;;5022125;28;20671;-78
2021/04/19 08:13:10;;;;;;;48.78;37.50;;;8.40;99.90;;;;;;5015179;28;20304;-78
2021/04/19 08:15:39;;;;;;;59.30;40.13;;;8.40;99.90;;;;;;5030608;28;20206;-78
2021/04/19 08:18:08;;;;;;;47.85;37.08;;;8.50;99.90;;;;;;5014375;28;20221;-77
2021/04/19 08:20:36;;;;;;;52.33;38.65;;;8.50;99.90;;;;;;5034169;28;20197;-78
2021/04/19 08:23:05;;;;;;;48.85;37.90;;;8.50;99.90;;;;;;5033501;28;20749;-77
2021/04/19 08:25:36;;;;;;;49.30;37.38;;;8.50;99.90;;;;;;5022143;28;20244;-78
2021/04/19 08:28:05;;;;;;;49.20;37.72;;;8.60;99.90;;;;;;5013874;28;20568;-77
2021/04/19 08:30:33;;;;;;;54.88;41.50;;;8.60;99.90;;;;;;5017374;28;20244;-78
2021/04/19 08:33:00;;;;;;;52.22;38.03;;;8.70;99.90;;;;;;5033225;28;20275;-78
2021/04/19 08:35:29;;;;;;;50.67;38.25;;;8.70;99.90;;;;;;5005197;28;20348;-78
2021/04/19 08:37:57;;;;;;;48.70;37.78;;;8.70;99.90;;;;;;4997423;28;20222;-78
2021/04/19 08:40:27;;;;;;;51.15;39.00;;;8.80;99.90;;;;;;5015291;28;20213;-78
2021/04/19 08:42:55;;;;;;;53.58;41.45;;;8.80;99.90;;;;;;5013475;28;20226;-77
2021/04/19 08:45:26;;;;;;;55.72;39.35;;;8.70;99.90;;;;;;5014979;28;20580;-77
2021/04/19 08:47:53;;;;;;;51.97;38.38;;;8.80;99.90;;;;;;5014580;28;20284;-78
2021/04/19 08:50:25;;;;;;;49.67;37.28;;;8.80;99.90;;;;;;5015129;28;20186;-78
2021/04/19 08:52:54;;;;;;;52.22;38.00;;;8.70;99.90;;;;;;5013719;28;20272;-78
2021/04/19 08:55:25;;;;;;;59.92;40.55;;;8.70;99.90;;;;;;5014533;28;20202;-77
2021/04/19 08:57:52;;;;;;;50.65;40.10;;;8.70;99.90;;;;;;5034323;28;20638;-78
2021/04/19 09:00:24;;;;;;;52.10;39.05;;;8.70;99.90;;;;;;5034626;28;20181;-78
2021/04/19 09:02:51;;;;;;;54.40;42.08;;;8.80;99.90;;;;;;5026778;28;20217;-77
2021/04/19 09:05:23;;;;;;;51.97;40.17;;;8.90;99.90;;;;;;5029584;28;20206;-77
2021/04/19 09:08:07;;;;;;;57.60;42.75;;;8.90;99.90;;;;;;5027818;28;20610;-77
2021/04/19 09:11:00;;;;;;;60.03;43.03;;;8.90;99.90;;;;;;5014505;28;20707;-77
2021/04/19 09:13:39;;;;;;;55.30;40.53;;;9.00;99.90;;;;;;5024335;28;20217;-77
2021/04/19 09:16:23;;;;;;;55.28;41.63;;;9.00;99.90;;;;;;5031484;28;20216;-77
2021/04/19 09:18:53;;;;;;;52.80;40.60;;;9.10;99.90;;;;;;5022363;28;20235;-77
2021/04/19 09:21:49;;;;;;;58.40;44.05;;;9.10;99.90;;;;;;5025811;28;20216;-77
2021/04/19 09:24:18;;;;;;;60.80;45.88;;;9.10;99.90;;;;;;5031854;28;20265;-77
2021/04/19 09:26:50;;;;;;;58.83;44.42;;;9.20;99.90;;;;;;5018140;28;20586;-77
2021/04/19 09:29:26;;;;;;;60.10;42.80;;;9.30;99.90;;;;;;5023020;28;20282;-77
2021/04/19 09:31:55;;;;;;;64.18;45.47;;;9.40;99.90;;;;;;5033429;28;20647;-77
2021/04/19 09:34:46;;;;;;;71.95;44.83;;;9.40;99.90;;;;;;5023684;28;20274;-77
2021/04/19 09:37:18;;;;;;;62.10;43.10;;;9.40;99.90;;;;;;5013711;28;20309;-77
2021/04/19 09:39:50;;;;;;;61.03;41.53;;;9.40;99.90;;;;;;5028339;28;20201;-77
2021/04/19 09:42:36;;;;;;;65.05;41.75;;;9.50;99.90;;;;;;5013913;28;20230;-77
2021/04/19 09:45:03;;;;;;;61.75;46.53;;;9.50;99.90;;;;;;5019612;28;20293;-77
2021/04/19 09:47:49;;;;;;;58.13;43.95;;;9.50;99.90;;;;;;5025971;28;20248;-77
2021/04/19 09:50:23;;;;;;;55.00;40.87;;;9.50;99.90;;;;;;5014151;28;20187;-77
2021/04/19 09:52:51;;;;;;;65.87;43.97;;;9.80;99.90;;;;;;5012158;28;20551;-77
2021/04/19 09:55:20;;;;;;;61.53;42.00;;;9.80;99.90;;;;;;5013689;28;21005;-77
2021/04/19 09:57:47;;;;;;;61.58;44.88;;;9.70;99.90;;;;;;5013449;28;20880;-77
2021/04/19 10:00:16;;;;;;;57.95;43.08;;;9.80;99.90;;;;;;5013915;28;20593;-77
2021/04/19 10:02:44;;;;;;;53.40;41.85;;;9.80;99.90;;;;;;5013163;28;20273;-77
2021/04/19 10:05:12;;;;;;;56.13;39.70;;;9.90;99.90;;;;;;5013395;28;20226;-77
2021/04/19 10:07:44;;;;;;;56.70;41.60;;;9.90;99.90;;;;;;5011773;28;20311;-77
2021/04/19 10:10:16;;;;;;;52.17;41.63;;;10.00;99.90;;;;;;5013229;28;20541;-77
2021/04/19 10:12:48;;;;;;;52.25;37.50;;;10.00;99.90;;;;;;5013060;28;20604;-77
2021/04/19 10:15:22;;;;;;;53.20;39.85;;;10.00;99.90;;;;;;5013379;28;20432;-77
2021/04/19 10:17:50;;;;;;;55.30;39.15;;;9.90;99.90;;;;;;5012900;28;20582;-76
2021/04/19 10:20:22;;;;;;;51.85;40.88;;;9.90;99.90;;;;;;4995761;28;20217;-77
2021/04/19 10:23:10;;;;;;;57.22;42.33;;;9.90;99.90;;;;;;5027980;28;20279;-76
2021/04/19 10:25:49;;;;;;;61.90;43.92;;;9.90;99.90;;;;;;5019485;28;20220;-77
2021/04/19 10:28:38;;;;;;;53.13;41.92;;;9.90;99.90;;;;;;5012841;28;20634;-77
2021/04/19 10:31:19;;;;;;;53.33;39.88;;;10.00;99.90;;;;;;5031815;28;20188;-76
2021/04/19 10:33:51;;;;;;;46.60;36.20;;;10.00;99.90;;;;;;5029558;28;20206;-76
2021/04/19 10:36:18;;;;;;;51.00;37.40;;;10.10;99.90;;;;;;5011932;28;20310;-76
2021/04/19 10:38:47;;;;;;;50.83;37.45;;;10.20;99.90;;;;;;5011964;28;20500;-76
2021/04/19 10:41:16;;;;;;;50.03;39.80;;;10.10;99.90;;;;;;5024797;28;20273;-76
2021/04/19 10:43:43;;;;;;;50.37;37.37;;;10.20;99.90;;;;;;5013056;28;20511;-76
2021/04/19 10:46:28;;;;;;;48.97;35.67;;;10.30;99.90;;;;;;5012311;28;20883;-77
2021/04/19 10:48:57;;;;;;;51.13;36.87;;;10.30;99.90;;;;;;5015885;28;20536;-77
2021/04/19 10:51:51;;;;;;;55.17;38.83;;;10.30;99.90;;;;;;5029604;28;20464;-76
2021/04/19 10:54:18;;;;;;;122.47;43.70;;;10.30;99.90;;;;;;5013219;28;20438;-76
2021/04/19 10:56:44;;;;;;;57.83;42.97;;;10.30;99.90;;;;;;5038770;28;20549;-76
2021/04/19 10:59:12;;;;;;;56.27;41.67;;;10.30;99.90;;;;;;5032323;28;20424;-76
2021/04/19 11:01:42;;;;;;;65.40;43.30;;;10.30;99.90;;;;;;5031523;28;20467;-76
2021/04/19 11:04:09;;;;;;;56.03;42.90;;;10.40;99.90;;;;;;5027553;28;20447;-76
2021/04/19 11:06:37;;;;;;;60.70;42.10;;;10.40;99.90;;;;;;5027109;28;20838;-76
2021/04/19 11:09:17;;;;;;;61.40;43.17;;;10.30;99.90;;;;;;5040699;28;20922;-76
2021/04/19 11:11:45;;;;;;;55.80;41.30;;;10.20;99.90;;;;;;5011732;28;20496;-76
2021/04/19 11:14:19;;;;;;;56.33;41.93;;;10.20;99.90;;;;;;5028050;28;20443;-76
2021/04/19 11:17:02;;;;;;;58.40;41.20;;;10.40;99.90;;;;;;5011724;28;20477;-76
2021/04/19 11:19:44;;;;;;;52.93;38.07;;;10.40;99.90;;;;;;5013133;28;20425;-76
2021/04/19 11:22:27;;;;;;;58.80;41.43;;;10.40;99.90;;;;;;5018494;28;20465;-76
2021/04/19 11:25:24;;;;;;;65.20;43.00;;;10.40;99.90;;;;;;5028705;28;20462;-76
2021/04/19 11:27:53;;;;;;;54.13;40.80;;;10.40;99.90;;;;;;5029599;28;20475;-76
2021/04/19 11:30:30;;;;;;;49.93;40.13;;;10.40;99.90;;;;;;5032510;28;20455;-76
2021/04/19 11:33:15;;;;;;;54.43;40.67;;;10.40;99.90;;;;;;5028356;28;20959;-76
2021/04/19 11:35:50;;;;;;;53.50;42.60;;;10.40;99.90;;;;;;5030598;28;20826;-76
2021/04/19 11:38:20;;;;;;;53.87;40.60;;;10.40;99.90;;;;;;5030730;28;20453;-76
2021/04/19 11:40:51;;;;;;;56.53;39.83;;;10.40;99.90;;;;;;5016250;28;20443;-76
2021/04/19 11:43:25;;;;;;;58.10;41.50;;;10.40;99.90;;;;;;5011716;28;20728;-76
2021/04/19 11:46:02;;;;;;;50.83;41.13;;;10.40;99.90;;;;;;5023751;28;20451;-76
2021/04/19 11:48:29;;;;;;;52.97;40.53;;;10.40;99.90;;;;;;5030084;28;20434;-76
2021/04/19 11:50:57;;;;;;;54.30;40.37;;;10.40;99.90;;;;;;5027835;28;20443;-76
2021/04/19 11:53:28;;;;;;;52.27;40.60;;;10.40;99.90;;;;;;5013891;28;20495;-76
2021/04/19 11:55:56;;;;;;;52.00;37.03;;;10.50;99.90;;;;;;5029664;28;20459;-76
2021/04/19 11:58:33;;;;;;;51.17;39.37;;;10.60;99.90;;;;;;5031635;28;20420;-76
2021/04/19 12:01:00;;;;;;;57.43;41.33;;;10.70;99.90;;;;;;5030975;28;20428;-76
2021/04/19 12:03:27;;;;;;;47.40;37.70;;;10.80;99.90;;;;;;5015755;28;20444;-75
2021/04/19 12:05:54;;;;;;;49.80;37.70;;;11.00;99.90;;;;;;5010547;28;20445;-76
2021/04/19 12:08:21;;;;;;;48.57;39.60;;;11.00;99.90;;;;;;5011757;28;20432;-76
2021/04/19 12:10:48;;;;;;;55.60;42.33;;;11.00;99.90;;;;;;5010406;28;20782;-76
2021/04/19 12:13:15;;;;;;;48.07;37.53;;;11.00;99.90;;;;;;5018699;28;20833;-76
2021/04/19 12:15:48;;;;;;;48.87;39.00;;;11.00;99.90;;;;;;5031301;28;20439;-76
2021/04/19 12:18:15;;;;;;;46.57;37.27;;;11.20;99.90;;;;;;5008028;28;20457;-76
2021/04/19 12:20:44;;;;;;;54.77;39.37;;;11.30;99.90;;;;;;5022308;28;20482;-75
2021/04/19 12:23:11;;;;;;;45.17;36.63;;;11.40;99.90;;;;;;5030838;28;20471;-75
2021/04/19 12:25:37;;;;;;;39.17;33.37;;;11.50;99.90;;;;;;5016373;28;20461;-75
2021/04/19 12:28:04;;;;;;;43.43;34.73;;;11.50;99.90;;;;;;5022115;28;20514;-75
2021/04/19 12:30:31;;;;;;;37.70;32.37;;;11.40;99.90;;;;;;5031387;28;20466;-75
2021/04/19 12:32:58;;;;;;;46.50;33.37;;;11.40;99.90;;;;;;5030705;28;20480;-75
2021/04/19 12:35:27;;;;;;;42.90;29.67;;;11.40;99.90;;;;;;5013123;28;20471;-75
2021/04/19 12:37:53;;;;;;;38.50;31.80;;;11.40;99.90;;;;;;5011076;28;20457;-75
2021/04/19 12:40:22;;;;;;;39.70;32.57;;;11.50;99.90;;;;;;5037191;28;20538;-75
2021/04/19 12:42:51;;;;;;;39.77;30.90;;;11.50;99.90;;;;;;5030730;28;20536;-75
2021/04/19 12:45:20;;;;;;;42.40;31.03;;;11.50;99.90;;;;;;5031138;28;20440;-75
2021/04/19 12:47:47;;;;;;;37.40;30.53;;;11.60;99.90;;;;;;5021757;28;20528;-75
2021/04/19 12:50:13;;;;;;;37.80;32.30;;;11.60;99.90;;;;;;5011832;28;20854;-75
2021/04/19 12:52:40;;;;;;;40.80;31.00;;;11.70;99.90;;;;;;5014391;28;20564;-75
2021/04/19 12:55:07;;;;;;;36.70;30.10;;;11.70;99.90;;;;;;5037995;28;20467;-75
2021/04/19 12:57:33;;;;;;;35.93;27.57;;;11.80;99.90;;;;;;5034092;28;20830;-75